Airport View

Enter AWOS ICAO identifier for current METAR.

ex. KFNL

K20U 170925Z AUTO 24005KT 10SM CLR M02/M03 A3003 RMK AO2

17 Nov 2019 09:29

Frequency: 118.175

Phone: 701-872-9225

Other Area AWOS: KGDV - KBHK - KSDY - KDIK

TAF KGDV 170528Z 1706/1806 30008KT P6SM FEW200 FM171800 22008KT P6SM BKN080 FM180000 27009KT P6SM BKN080 WS020/30035KT FM180400 27009KT P6SM BKN040 WS020/31035KT